Time;durP1;ratioP1;P1;durP2;ratioP2;P2;SDS_P1;SDS_P2;PMS_P1;PMS_P2;Temp;Humidity;BMP_temperature;BMP_pressure;BME280_temperature;BME280_humidity;BME280_pressure;Samples;Min_cycle;Max_cycle;Signal;HPM_P1;HPM_P2
2022/01/15 00:01:04;;;;;;;5.63;3.53;;;;;;;3.89;75.67;94665.63;5113800;28;20398;-78
2022/01/15 00:03:30;;;;;;;5.97;3.70;;;;;;;3.92;75.00;94664.00;5113711;28;20042;-78
2022/01/15 00:05:56;;;;;;;5.40;3.42;;;;;;;3.91;76.33;94669.81;5113493;28;20023;-77
2022/01/15 00:08:22;;;;;;;6.55;3.50;;;;;;;3.85;75.95;94675.75;5112591;28;20140;-78
2022/01/15 00:10:48;;;;;;;7.00;3.95;;;;;;;3.85;76.72;94662.31;5113554;28;20051;-77
2022/01/15 00:13:24;;;;;;;7.68;3.72;;;;;;;3.78;77.06;94676.00;5113889;28;20123;-77
2022/01/15 00:16:00;;;;;;;7.70;3.53;;;;;;;3.77;77.68;94674.50;5113560;28;20024;-78
2022/01/15 00:18:29;;;;;;;6.50;3.65;;;;;;;3.73;78.33;94668.50;5113385;28;20367;-77
2022/01/15 00:20:54;;;;;;;5.60;3.47;;;;;;;3.87;77.01;94672.63;5112692;28;20055;-77
2022/01/15 00:23:20;;;;;;;7.00;3.80;;;;;;;3.82;77.47;94667.84;5112434;28;20066;-78
2022/01/15 00:25:45;;;;;;;5.57;3.35;;;;;;;3.70;77.62;94686.25;5111945;28;20016;-78
2022/01/15 00:28:11;;;;;;;5.70;3.55;;;;;;;3.71;78.54;94671.63;5112137;28;20023;-78
2022/01/15 00:30:36;;;;;;;6.90;3.70;;;;;;;3.78;78.64;94659.16;5113198;28;20434;-77
2022/01/15 00:33:02;;;;;;;5.40;3.35;;;;;;;3.73;78.88;94673.88;5112064;28;20065;-78
2022/01/15 00:35:28;;;;;;;6.80;3.40;;;;;;;3.70;78.39;94670.13;5113179;28;20149;-77
2022/01/15 00:37:54;;;;;;;6.50;3.97;;;;;;;3.73;78.83;94695.34;5113031;28;20019;-78
2022/01/15 00:40:20;;;;;;;6.78;3.85;;;;;;;3.85;79.04;94696.50;5113078;28;20028;-78
2022/01/15 00:42:46;;;;;;;7.25;3.40;;;;;;;3.92;77.84;94690.84;5113031;28;20023;-78
2022/01/15 00:45:17;;;;;;;6.53;3.90;;;;;;;3.73;79.51;94696.09;5112982;28;20019;-78
2022/01/15 00:47:44;;;;;;;3.95;2.67;;;;;;;3.80;78.34;94697.03;5112942;28;20111;-78
2022/01/15 00:50:11;;;;;;;6.35;3.88;;;;;;;3.78;79.38;94696.75;5112140;28;20428;-78
2022/01/15 00:52:36;;;;;;;5.72;3.58;;;;;;;3.78;79.55;94697.50;5111825;28;20114;-78
2022/01/15 00:55:04;;;;;;;6.65;3.20;;;;;;;3.80;78.81;94684.38;5112993;28;20137;-78
2022/01/15 00:57:30;;;;;;;5.93;3.47;;;;;;;3.73;79.30;94680.00;5112596;28;20043;-77
2022/01/15 00:59:55;;;;;;;6.72;4.07;;;;;;;3.72;79.26;94670.47;5113041;28;20077;-77
2022/01/15 01:02:21;;;;;;;6.15;3.75;;;;;;;3.71;79.78;94660.16;5113160;28;20367;-78
2022/01/15 01:04:46;;;;;;;6.63;4.00;;;;;;;3.75;80.05;94657.34;5112921;28;20072;-79
2022/01/15 01:07:12;;;;;;;7.53;3.80;;;;;;;3.78;79.92;94662.59;5112647;28;20012;-77
2022/01/15 01:10:06;;;;;;;7.22;4.05;;;;;;;3.82;79.30;94665.88;5112908;28;20028;-77
2022/01/15 01:22:58;;;;;;;8.80;3.78;;;;;;;3.84;79.76;94674.25;5112760;28;20096;-80
2022/01/15 01:25:31;;;;;;;6.03;4.15;;;;;;;3.84;79.53;94674.25;5112910;28;20031;-80
2022/01/15 01:28:04;;;;;;;10.57;4.07;;;;;;;3.76;80.21;94667.63;5112907;28;20076;-80
2022/01/15 01:30:36;;;;;;;6.00;3.90;;;;;;;3.84;79.01;94668.13;5112915;28;20023;-80
2022/01/15 01:35:56;;;;;;;7.10;3.97;;;;;;;3.73;79.24;94657.78;5116923;28;20039;-79
2022/01/15 01:38:29;;;;;;;7.97;4.15;;;;;;;3.70;80.00;94658.66;5117121;28;20080;-79
2022/01/15 01:40:57;;;;;;;6.88;4.45;;;;;;;3.72;79.15;94662.41;5116974;28;20058;-80
2022/01/15 01:45:59;;;;;;;6.72;4.15;;;;;;;3.71;79.79;94657.47;5117057;28;20027;-80
2022/01/15 01:48:24;;;;;;;7.38;4.20;;;;;;;3.66;79.36;94660.72;5116619;28;20035;-79
2022/01/15 01:50:50;;;;;;;8.52;3.95;;;;;;;3.73;79.33;94669.25;5116919;28;20367;-78
2022/01/15 01:53:15;;;;;;;6.97;4.22;;;;;;;3.66;79.45;94663.41;5116791;28;20020;-78
2022/01/15 01:55:41;;;;;;;7.38;4.40;;;;;;;3.77;78.69;94669.13;5116890;28;20019;-79
2022/01/15 01:58:06;;;;;;;7.28;4.00;;;;;;;3.78;78.81;94676.00;5116624;28;20040;-78
2022/01/15 02:00:32;;;;;;;6.22;4.10;;;;;;;3.78;78.05;94676.00;5116708;28;20038;-79
2022/01/15 02:02:58;;;;;;;7.70;3.85;;;;;;;3.77;77.90;94665.72;5116858;28;20043;-79
2022/01/15 02:05:24;;;;;;;5.88;4.18;;;;;;;3.80;77.35;94668.25;5116401;28;20031;-79
2022/01/15 02:07:50;;;;;;;8.57;4.20;;;;;;;3.91;76.81;94667.13;5116382;28;20051;-79
2022/01/15 02:10:19;;;;;;;8.32;4.63;;;;;;;3.88;76.34;94674.13;5116206;28;20419;-78
2022/01/15 02:12:47;;;;;;;7.97;4.47;;;;;;;3.90;75.67;94655.66;5116182;28;20106;-79
2022/01/15 02:15:19;;;;;;;7.13;4.57;;;;;;;4.01;76.29;94661.38;5115773;28;20019;-79
2022/01/15 02:17:46;;;;;;;7.85;4.28;;;;;;;3.95;76.07;94673.88;5115674;27;20084;-79
2022/01/15 02:25:44;;;;;;;7.82;4.22;;;;;;;3.92;76.34;94679.38;5115506;28;20031;-79
2022/01/15 02:28:10;;;;;;;7.50;4.47;;;;;;;3.89;77.48;94664.88;5115994;28;20118;-79
2022/01/15 02:30:37;;;;;;;7.68;4.20;;;;;;;3.89;77.34;94681.00;5115828;28;20023;-79
2022/01/15 02:33:04;;;;;;;9.20;4.15;;;;;;;3.95;76.88;94678.50;5115955;28;20020;-80
2022/01/15 02:35:30;;;;;;;7.25;4.35;;;;;;;3.97;76.54;94666.13;5116210;28;20038;-80
2022/01/15 02:38:01;;;;;;;8.35;4.45;;;;;;;3.87;76.41;94670.69;5116429;28;20020;-80
2022/01/15 02:40:26;;;;;;;7.18;4.40;;;;;;;3.97;76.60;94682.25;5116326;28;20023;-81
2022/01/15 02:42:52;;;;;;;7.25;4.28;;;;;;;3.92;75.21;94695.50;5113624;28;20028;-80
2022/01/15 02:45:22;;;;;;;7.10;4.60;;;;;;;3.97;75.22;94697.63;5114822;28;20062;-81
2022/01/15 02:48:03;;;;;;;11.15;4.07;;;;;;;3.73;76.14;94692.69;5115493;28;20027;-81
2022/01/15 02:50:29;;;;;;;7.65;4.97;;;;;;;3.64;75.74;94696.06;5115234;28;20023;-78
2022/01/15 02:52:56;;;;;;;8.65;4.63;;;;;;;3.62;75.37;94703.78;5114208;28;20024;-78
2022/01/15 02:55:22;;;;;;;11.13;4.85;;;;;;;3.66;76.31;94695.63;5115141;28;20094;-79
2022/01/15 02:57:47;;;;;;;11.27;5.70;;;;;;;3.70;75.65;94696.25;5115004;28;20479;-77
2022/01/15 03:00:13;;;;;;;8.70;4.65;;;;;;;3.67;76.00;94699.81;5113776;28;20125;-76
2022/01/15 03:02:38;;;;;;;7.97;4.80;;;;;;;3.72;75.91;94699.22;5115064;28;20030;-77
2022/01/15 03:05:04;;;;;;;8.27;4.93;;;;;;;3.69;76.12;94708.91;5113637;28;20020;-76
2022/01/15 03:07:30;;;;;;;9.25;4.93;;;;;;;3.52;75.43;94702.22;5114892;28;20075;-77
2022/01/15 03:09:55;;;;;;;11.48;4.63;;;;;;;3.39;74.12;94721.03;5114768;28;20456;-77
2022/01/15 03:12:21;;;;;;;9.05;5.57;;;;;;;3.44;74.20;94717.81;5114837;28;20034;-77
2022/01/15 03:14:48;;;;;;;9.13;5.28;;;;;;;3.35;73.76;94712.34;5114568;28;20053;-77
2022/01/15 03:17:14;;;;;;;13.40;6.25;;;;;;;3.33;73.06;94717.41;5113368;28;20031;-77
2022/01/15 03:19:39;;;;;;;9.73;5.45;;;;;;;3.34;73.34;94718.91;5114477;28;20034;-77
2022/01/15 03:22:05;;;;;;;10.05;5.72;;;;;;;3.30;73.33;94711.00;5114647;27;20386;-78
2022/01/15 03:24:30;;;;;;;11.52;6.10;;;;;;;3.16;73.23;94701.47;5114408;28;20051;-78
2022/01/15 03:26:56;;;;;;;11.00;5.90;;;;;;;3.07;73.34;94698.72;5114606;28;20368;-77
2022/01/15 03:29:21;;;;;;;10.38;5.68;;;;;;;3.14;73.32;94705.78;5114291;28;20059;-76
2022/01/15 03:31:47;;;;;;;10.98;6.35;;;;;;;3.15;73.34;94697.28;5115061;27;20036;-77
2022/01/15 03:34:12;;;;;;;10.88;5.85;;;;;;;3.06;73.44;94699.88;5114440;28;20491;-77
2022/01/15 03:36:38;;;;;;;11.70;6.20;;;;;;;3.08;73.59;94689.47;5114155;28;20099;-78
2022/01/15 03:39:03;;;;;;;11.32;5.63;;;;;;;3.09;74.08;94709.75;5114322;28;20038;-77
2022/01/15 03:41:29;;;;;;;11.30;5.95;;;;;;;3.00;74.06;94701.59;5113946;28;20064;-78
2022/01/15 03:43:54;;;;;;;12.25;6.50;;;;;;;2.97;74.74;94723.91;5113942;28;20035;-77
2022/01/15 03:46:21;;;;;;;11.02;5.93;;;;;;;3.09;74.61;94725.84;5113725;28;20015;-78
2022/01/15 03:48:47;;;;;;;10.00;5.15;;;;;;;3.06;75.24;94721.34;5113675;28;20030;-78
2022/01/15 03:51:14;;;;;;;9.55;6.20;;;;;;;3.19;74.56;94727.44;5113941;28;20055;-78
2022/01/15 03:53:39;;;;;;;11.57;5.32;;;;;;;3.13;75.34;94721.09;5112637;28;20023;-77
2022/01/15 03:56:05;;;;;;;8.88;5.38;;;;;;;3.19;76.24;94724.75;5112720;28;20072;-77
2022/01/15 03:58:30;;;;;;;11.77;5.30;;;;;;;3.13;76.65;94741.81;5113710;28;20050;-78
2022/01/15 04:00:57;;;;;;;9.77;5.35;;;;;;;3.10;77.18;94750.72;5113631;28;20435;-77
2022/01/15 04:03:22;;;;;;;11.02;6.53;;;;;;;3.08;76.67;94740.44;5113550;28;20089;-78
2022/01/15 04:05:47;;;;;;;10.68;6.05;;;;;;;3.15;76.69;94729.47;5113562;28;20422;-77
2022/01/15 04:08:13;;;;;;;10.48;5.93;;;;;;;3.08;76.90;94751.16;5113416;28;20031;-78
2022/01/15 04:10:39;;;;;;;12.15;6.75;;;;;;;3.10;76.80;94751.47;5113604;28;20372;-76
2022/01/15 04:13:04;;;;;;;10.95;6.40;;;;;;;3.00;77.07;94739.13;5113407;28;20485;-78
2022/01/15 04:15:30;;;;;;;11.90;6.35;;;;;;;3.01;76.80;94757.50;5113794;28;20356;-75
2022/01/15 04:17:55;;;;;;;12.43;6.40;;;;;;;3.03;76.98;94757.06;5113148;28;20031;-75
2022/01/15 04:20:23;;;;;;;9.70;5.78;;;;;;;2.99;77.21;94764.47;5112070;28;20058;-75
2022/01/15 04:22:50;;;;;;;14.77;6.75;;;;;;;2.82;77.64;94764.59;5111995;28;20512;-75
2022/01/15 04:25:17;;;;;;;13.40;6.90;;;;;;;2.79;77.62;94762.75;5113247;28;20126;-75
2022/01/15 04:27:44;;;;;;;10.82;6.47;;;;;;;2.86;77.71;94767.91;5112792;28;20410;-75
2022/01/15 04:30:12;;;;;;;13.70;7.50;;;;;;;2.79;78.07;94770.78;5113415;28;20080;-75
2022/01/15 04:32:38;;;;;;;14.18;6.88;;;;;;;2.70;78.53;94784.09;5113189;28;20046;-75
2022/01/15 04:35:06;;;;;;;11.98;7.25;;;;;;;2.70;78.80;94782.16;5113311;28;20391;-75
2022/01/15 04:37:42;;;;;;;14.45;7.50;;;;;;;2.63;78.76;94776.25;5113241;28;20111;-75
2022/01/15 04:40:08;;;;;;;12.60;7.00;;;;;;;2.64;78.90;94775.09;5113091;28;20031;-75
2022/01/15 04:42:34;;;;;;;14.25;7.47;;;;;;;2.73;78.85;94759.13;5112827;28;20027;-77
2022/01/15 04:45:02;;;;;;;14.27;7.20;;;;;;;2.71;78.82;94777.53;5112849;28;20023;-76
2022/01/15 04:47:27;;;;;;;13.75;7.25;;;;;;;2.54;79.56;94763.50;5111687;28;20012;-76
2022/01/15 04:49:54;;;;;;;17.60;8.10;;;;;;;2.63;79.99;94778.94;5113185;28;20040;-78
2022/01/15 04:52:24;;;;;;;15.95;8.23;;;;;;;2.61;79.75;94784.00;5112534;28;20058;-78
2022/01/15 04:54:50;;;;;;;14.00;7.82;;;;;;;2.77;79.28;94788.47;5112906;28;20079;-77
2022/01/15 04:57:16;;;;;;;13.32;8.00;;;;;;;2.66;80.08;94791.50;5111430;28;20082;-75
2022/01/15 04:59:41;;;;;;;13.95;8.00;;;;;;;2.64;80.59;94791.16;5112820;28;20459;-76
2022/01/15 05:02:07;;;;;;;16.08;8.27;;;;;;;2.72;80.32;94779.06;5112912;28;20047;-75
2022/01/15 05:04:32;;;;;;;14.88;8.35;;;;;;;2.67;80.92;94787.63;5113086;28;20487;-76
2022/01/15 05:06:58;;;;;;;15.40;8.60;;;;;;;2.56;81.58;94784.50;5112512;28;20019;-76
2022/01/15 05:09:24;;;;;;;14.18;8.23;;;;;;;2.51;81.43;94783.13;5112491;28;20055;-75
2022/01/15 05:12:01;;;;;;;15.07;8.57;;;;;;;2.62;82.03;94796.19;5112727;28;20114;-76
2022/01/15 05:14:26;;;;;;;14.90;8.18;;;;;;;2.51;82.43;94797.25;5112826;28;20401;-77
2022/01/15 05:16:52;;;;;;;17.00;8.63;;;;;;;2.49;82.84;94799.59;5112712;28;20059;-76
2022/01/15 05:19:17;;;;;;;15.40;8.35;;;;;;;2.39;83.26;94808.72;5112283;28;20020;-77
2022/01/15 05:21:43;;;;;;;16.65;8.65;;;;;;;2.46;83.19;94802.41;5112600;28;20104;-76
2022/01/15 05:24:08;;;;;;;16.23;8.43;;;;;;;2.51;82.98;94802.63;5111327;28;20028;-78
2022/01/15 05:26:34;;;;;;;14.93;8.30;;;;;;;2.46;83.55;94799.72;5112447;28;20409;-77
2022/01/15 05:29:00;;;;;;;14.57;8.40;;;;;;;2.58;82.63;94811.63;5112520;28;20032;-77
2022/01/15 05:31:26;;;;;;;15.38;8.10;;;;;;;2.62;82.24;94818.41;5112411;28;20103;-76
2022/01/15 05:33:53;;;;;;;16.33;7.97;;;;;;;2.44;83.21;94821.59;5111346;28;20096;-77
2022/01/15 05:36:18;;;;;;;14.82;8.43;;;;;;;2.42;82.70;94817.81;5112396;28;20030;-77
2022/01/15 05:38:44;;;;;;;13.68;8.30;;;;;;;2.42;83.91;94826.59;5112477;28;20020;-77
2022/01/15 05:41:09;;;;;;;14.63;8.38;;;;;;;2.39;83.17;94827.47;5112373;28;20066;-76
2022/01/15 05:43:35;;;;;;;14.95;8.57;;;;;;;2.50;83.06;94825.22;5112494;28;20538;-75
2022/01/15 05:46:01;;;;;;;14.95;7.75;;;;;;;2.46;83.51;94827.25;5112137;28;20106;-77
2022/01/15 05:48:26;;;;;;;12.52;7.70;;;;;;;2.34;83.82;94819.94;5112267;28;20098;-76
2022/01/15 05:50:52;;;;;;;15.70;9.13;;;;;;;2.33;84.64;94831.81;5112224;28;20495;-76
2022/01/15 05:53:17;;;;;;;17.23;9.52;;;;;;;2.49;83.56;94837.13;5111013;28;20035;-76
2022/01/15 05:55:43;;;;;;;15.55;9.15;;;;;;;2.52;83.78;94835.53;5111136;28;20452;-77
2022/01/15 05:58:08;;;;;;;17.95;9.32;;;;;;;2.42;83.77;94842.69;5111434;28;20051;-75
2022/01/15 06:00:35;;;;;;;13.75;8.65;;;;;;;2.38;84.62;94838.59;5112158;28;20131;-76
2022/01/15 06:03:01;;;;;;;17.42;9.40;;;;;;;2.42;84.53;94856.06;5112195;28;20111;-77
2022/01/15 06:05:27;;;;;;;16.15;9.23;;;;;;;2.40;84.46;94863.81;5111952;28;20026;-78
2022/01/15 06:07:53;;;;;;;15.35;9.77;;;;;;;2.41;84.71;94856.50;5110941;28;20106;-78
2022/01/15 06:10:18;;;;;;;16.75;9.73;;;;;;;2.49;84.99;94861.22;5112081;28;20023;-75
2022/01/15 06:12:44;;;;;;;16.50;9.23;;;;;;;2.18;86.36;94872.41;5112259;28;20019;-75
2022/01/15 06:15:14;;;;;;;15.90;9.13;;;;;;;2.23;86.29;94867.69;5112143;28;20318;-76
2022/01/15 06:17:41;;;;;;;17.00;10.30;;;;;;;2.16;87.18;94868.63;5112562;28;20043;-77
2022/01/15 06:20:08;;;;;;;16.00;9.13;;;;;;;2.38;85.73;94874.19;5115433;28;20027;-78
2022/01/15 06:22:34;;;;;;;17.80;10.13;;;;;;;2.33;86.21;94880.81;5116041;28;20118;-77
2022/01/15 06:25:02;;;;;;;16.33;9.48;;;;;;;2.35;85.99;94885.75;5115631;28;20059;-78
2022/01/15 06:27:28;;;;;;;15.88;9.43;;;;;;;2.39;85.59;94897.13;5115478;28;20026;-76
2022/01/15 06:29:56;;;;;;;19.42;9.98;;;;;;;2.33;86.05;94885.41;5115821;28;20102;-76
2022/01/15 06:32:22;;;;;;;15.98;8.95;;;;;;;2.35;85.54;94881.13;5114208;28;20052;-83
2022/01/15 06:34:47;;;;;;;18.65;10.15;;;;;;;2.46;85.57;94886.19;5115982;28;20055;-78
2022/01/15 06:37:13;;;;;;;18.50;9.82;;;;;;;2.39;85.74;94891.75;5114264;28;20042;-76
2022/01/15 06:39:38;;;;;;;20.55;11.00;;;;;;;2.47;85.04;94890.41;5116144;28;20020;-81
2022/01/15 06:42:04;;;;;;;15.20;9.80;;;;;;;2.39;85.19;94886.41;5115807;28;20061;-74
2022/01/15 06:44:29;;;;;;;17.42;9.75;;;;;;;2.40;85.65;94879.09;5115177;28;20024;-72
2022/01/15 06:46:55;;;;;;;17.60;9.75;;;;;;;2.33;86.46;94882.72;5115120;28;20375;-73
2022/01/15 06:49:21;;;;;;;18.48;10.25;;;;;;;2.46;85.62;94901.53;5115301;28;20039;-72
2022/01/15 06:51:47;;;;;;;15.10;9.50;;;;;;;2.30;85.65;94905.00;5115386;28;20020;-74
2022/01/15 06:54:13;;;;;;;17.35;10.52;;;;;;;2.38;85.96;94894.88;5115438;28;20029;-71
2022/01/15 06:56:39;;;;;;;17.02;9.63;;;;;;;2.25;86.67;94892.13;5115116;28;20104;-62
2022/01/15 06:59:05;;;;;;;17.05;9.98;;;;;;;2.50;85.62;94908.28;5115149;28;20055;-74
2022/01/15 07:01:30;;;;;;;18.90;10.75;;;;;;;2.51;84.90;94899.09;5114911;28;20039;-71
2022/01/15 07:03:56;;;;;;;17.88;10.10;;;;;;;2.35;85.71;94891.09;5115028;28;20019;-77
2022/01/15 07:06:21;;;;;;;20.58;10.50;;;;;;;2.38;85.58;94900.97;5114906;28;20153;-74
2022/01/15 07:08:47;;;;;;;17.70;10.15;;;;;;;2.55;85.32;94901.69;5114775;27;20030;-80
2022/01/15 07:11:12;;;;;;;20.17;11.18;;;;;;;2.68;84.25;94909.75;5114659;28;20027;-79
2022/01/15 07:13:38;;;;;;;16.75;10.43;;;;;;;2.65;84.10;94918.63;5115096;28;20030;-73
2022/01/15 07:16:03;;;;;;;19.55;10.30;;;;;;;2.54;84.64;94919.66;5115162;28;20479;-72
2022/01/15 07:18:29;;;;;;;20.80;11.30;;;;;;;2.99;81.48;94920.00;5114906;28;20104;-75
2022/01/15 07:20:55;;;;;;;21.25;11.80;;;;;;;2.99;81.82;94936.09;5114804;28;20372;-74
2022/01/15 07:23:20;;;;;;;21.50;11.18;;;;;;;2.93;81.76;94940.47;5114457;28;20095;-76
2022/01/15 07:25:46;;;;;;;19.92;11.02;;;;;;;2.64;82.72;94928.59;5114282;28;20055;-72
2022/01/15 07:28:12;;;;;;;20.00;11.23;;;;;;;2.57;83.67;94941.44;5114290;28;20103;-74
2022/01/15 07:30:38;;;;;;;20.83;12.30;;;;;;;2.63;83.32;94945.09;5113340;28;20072;-71
2022/01/15 07:33:04;;;;;;;18.85;9.57;;;;;;;2.40;84.31;94946.84;5113241;28;20020;-73
2022/01/15 07:35:29;;;;;;;20.05;11.68;;;;;;;2.28;85.45;94960.94;5114476;28;20035;-72
2022/01/15 07:37:55;;;;;;;21.73;10.98;;;;;;;2.40;84.25;94962.94;5114259;28;20476;-72
2022/01/15 07:40:21;;;;;;;24.77;10.98;;;;;;;2.30;84.77;94959.31;5114121;28;20056;-73
2022/01/15 07:42:46;;;;;;;26.80;13.65;;;;;;;2.17;86.06;94971.91;5114435;28;20157;-72
2022/01/15 07:45:15;;;;;;;25.50;13.52;;;;;;;2.49;84.65;94971.09;5114322;28;20116;-74
2022/01/15 07:47:41;;;;;;;21.65;12.45;;;;;;;2.25;84.69;94967.88;5114250;28;20027;-77
2022/01/15 07:50:10;;;;;;;26.17;13.40;;;;;;;2.24;84.91;94976.34;5112837;28;20035;-74
2022/01/15 07:52:36;;;;;;;26.05;14.38;;;;;;;2.23;85.09;94969.47;5113822;28;20019;-73
2022/01/15 07:55:03;;;;;;;21.65;12.70;;;;;;;2.32;84.72;94975.75;5113633;28;20061;-73
2022/01/15 07:57:29;;;;;;;31.08;14.48;;;;;;;2.10;85.56;94967.50;5112433;28;20044;-72
2022/01/15 07:59:54;;;;;;;26.02;14.32;;;;;;;2.14;85.67;94984.22;5113882;28;20031;-70
2022/01/15 08:02:20;;;;;;;24.20;14.18;;;;;;;2.31;85.34;94992.25;5114041;28;20092;-73
2022/01/15 08:04:45;;;;;;;23.98;14.63;;;;;;;2.47;84.19;94988.78;5113384;28;20035;-73
2022/01/15 08:07:11;;;;;;;25.45;14.80;;;;;;;2.52;83.77;94991.72;5113453;28;20107;-75
2022/01/15 08:09:37;;;;;;;24.02;13.18;;;;;;;2.53;83.24;94984.41;5113530;28;20027;-74
2022/01/15 08:12:03;;;;;;;26.85;13.95;;;;;;;2.33;83.82;95001.38;5113397;27;20107;-73
2022/01/15 08:14:29;;;;;;;25.95;14.45;;;;;;;2.05;85.42;94996.69;5113498;28;20107;-76
2022/01/15 08:16:55;;;;;;;26.67;15.95;;;;;;;2.57;84.13;95016.50;5113504;28;20500;-75
2022/01/15 08:19:20;;;;;;;22.63;14.20;;;;;;;2.56;83.58;95031.06;5113817;28;20140;-71
2022/01/15 08:21:46;;;;;;;24.17;13.55;;;;;;;2.59;82.50;95035.56;5113424;28;20059;-72
2022/01/15 08:24:11;;;;;;;22.83;13.48;;;;;;;2.63;82.20;95028.19;5112060;28;20038;-71
2022/01/15 08:26:37;;;;;;;27.83;14.45;;;;;;;2.42;83.64;95030.22;5113077;28;20056;-72
2022/01/15 08:29:03;;;;;;;25.77;14.60;;;;;;;2.40;83.63;95019.19;5113377;28;20423;-74
2022/01/15 08:31:29;;;;;;;27.35;14.20;;;;;;;2.17;84.05;95031.59;5113083;28;20023;-74
2022/01/15 08:33:55;;;;;;;24.48;13.98;;;;;;;2.11;83.77;95037.84;5113074;28;20108;-71
2022/01/15 08:36:21;;;;;;;24.95;14.23;;;;;;;2.17;84.73;95031.59;5113262;28;20034;-70
2022/01/15 08:38:47;;;;;;;26.42;14.68;;;;;;;2.43;83.00;95031.75;5112967;28;20027;-70
2022/01/15 08:41:14;;;;;;;22.55;12.68;;;;;;;2.06;83.69;95031.09;5112605;28;20031;-72
2022/01/15 08:43:43;;;;;;;24.92;13.48;;;;;;;2.29;83.24;95032.06;5112997;28;20046;-73
2022/01/15 08:46:09;;;;;;;24.30;13.77;;;;;;;2.41;82.44;95054.75;5111837;28;20038;-71
2022/01/15 08:48:34;;;;;;;22.73;12.45;;;;;;;2.43;81.95;95055.84;5112983;28;20023;-76
2022/01/15 08:51:00;;;;;;;21.35;12.07;;;;;;;2.65;79.59;95052.66;5111742;28;20039;-75
2022/01/15 08:53:25;;;;;;;24.00;12.00;;;;;;;2.77;78.68;95057.31;5113097;28;20028;-75
2022/01/15 08:55:52;;;;;;;16.75;10.23;;;;;;;2.63;78.39;95055.00;5112741;28;20031;-76
2022/01/15 08:58:19;;;;;;;18.20;11.35;;;;;;;2.62;79.06;95053.47;5112603;28;20136;-75
2022/01/15 09:01:03;;;;;;;19.67;10.52;;;;;;;2.59;78.40;95059.69;5113629;28;20038;-72
2022/01/15 09:03:28;;;;;;;19.08;11.02;;;;;;;2.57;78.46;95056.69;5113250;28;20028;-73
2022/01/15 09:05:54;;;;;;;21.05;11.30;;;;;;;2.31;79.56;95045.81;5112547;28;20076;-77
2022/01/15 09:08:24;;;;;;;18.58;11.10;;;;;;;2.41;79.25;95055.50;5112652;28;20031;-72
2022/01/15 09:10:51;;;;;;;19.75;10.68;;;;;;;2.14;80.24;95058.44;5113628;28;20024;-74
2022/01/15 09:13:17;;;;;;;20.23;10.40;;;;;;;2.01;80.44;95071.75;5111700;28;20027;-79
2022/01/15 09:15:42;;;;;;;19.77;11.68;;;;;;;2.13;80.76;95073.03;5114447;28;20100;-81
2022/01/15 09:18:08;;;;;;;18.58;11.23;;;;;;;2.24;80.22;95067.41;5113060;28;20111;-77
2022/01/15 09:20:33;;;;;;;19.63;11.18;;;;;;;2.10;80.82;95074.59;5112675;28;20414;-76
2022/01/15 09:22:59;;;;;;;19.98;11.23;;;;;;;2.14;81.06;95075.28;5112821;28;20025;-76
2022/01/15 09:25:27;;;;;;;17.20;9.50;;;;;;;2.18;80.31;95072.50;5112834;28;20107;-71
2022/01/15 09:30:38;;;;;;;21.02;11.48;;;;;;;2.38;79.46;95067.06;5113209;28;20160;-74
2022/01/15 09:33:04;;;;;;;20.25;11.55;;;;;;;2.46;79.33;95063.03;5112680;28;20475;-78
2022/01/15 09:35:31;;;;;;;23.52;11.48;;;;;;;2.64;77.54;95073.31;5113093;28;20028;-80
2022/01/15 09:37:58;;;;;;;21.15;11.85;;;;;;;2.74;76.79;95054.72;5112879;28;20027;-75
2022/01/15 09:40:26;;;;;;;21.45;11.98;;;;;;;2.57;77.89;95056.69;5112675;28;20480;-78
2022/01/15 09:42:52;;;;;;;20.67;11.50;;;;;;;2.67;76.41;95051.06;5112345;28;20023;-76
2022/01/15 09:45:20;;;;;;;19.45;11.25;;;;;;;3.17;74.44;95046.31;5112604;28;20092;-72
2022/01/15 09:47:53;;;;;;;22.75;11.25;;;;;;;3.99;71.01;95058.56;5111338;28;20107;-75
2022/01/15 09:50:19;;;;;;;18.05;10.20;;;;;;;4.65;66.80;95062.66;5112643;28;20484;-79
2022/01/15 09:52:45;;;;;;;17.27;10.30;;;;;;;4.78;66.13;95049.94;5113228;28;20080;-78
2022/01/15 09:55:12;;;;;;;16.40;9.68;;;;;;;4.77;64.69;95048.44;5116148;28;20449;-81
2022/01/15 09:57:40;;;;;;;18.27;10.05;;;;;;;5.27;62.98;95047.94;5116183;28;20046;-71
2022/01/15 10:00:09;;;;;;;17.33;10.70;;;;;;;5.13;63.82;95058.00;5116426;28;20110;-73
2022/01/15 10:02:38;;;;;;;15.15;9.50;;;;;;;5.60;61.94;95056.34;5116064;28;20019;-73
2022/01/15 10:05:04;;;;;;;17.38;9.77;;;;;;;6.42;59.19;95070.63;5115146;28;20022;-84
2022/01/15 10:07:29;;;;;;;20.40;10.60;;;;;;;6.83;56.92;95076.72;5115812;28;20020;-75
2022/01/15 10:09:56;;;;;;;16.63;9.48;;;;;;;6.60;56.70;95076.09;5115624;28;20020;-74
2022/01/15 10:12:35;;;;;;;16.77;10.07;;;;;;;6.70;57.61;95070.72;5115058;28;20020;-71
2022/01/15 10:15:05;;;;;;;18.20;10.23;;;;;;;6.64;56.48;95077.88;5116062;28;20024;-70
2022/01/15 10:17:36;;;;;;;18.58;10.73;;;;;;;7.89;54.01;95079.91;5115655;27;20480;-71
2022/01/15 10:20:05;;;;;;;18.40;11.15;;;;;;;7.21;55.00;95063.97;5115463;28;20031;-72
2022/01/15 10:22:32;;;;;;;19.27;10.02;;;;;;;7.02;54.87;95065.94;5115619;28;20023;-70
2022/01/15 10:25:07;;;;;;;15.95;10.05;;;;;;;8.37;52.10;95067.72;5115678;28;20039;-69
2022/01/15 10:27:47;;;;;;;17.80;9.77;;;;;;;8.25;51.39;95058.63;5115923;28;20525;-71
2022/01/15 10:30:29;;;;;;;18.08;10.07;;;;;;;7.83;54.53;95054.00;5115531;28;20094;-78
2022/01/15 10:33:08;;;;;;;21.83;10.68;;;;;;;7.75;54.15;95053.56;5115891;28;20027;-74
2022/01/15 10:35:42;;;;;;;22.42;9.98;;;;;;;9.76;50.22;95045.03;5115501;28;20024;-77
2022/01/15 10:38:09;;;;;;;15.43;10.05;;;;;;;9.14;49.91;95053.56;5115906;28;20424;-73
2022/01/15 10:40:46;;;;;;;17.30;9.27;;;;;;;9.56;48.13;95046.44;5116679;28;20098;-74
2022/01/15 10:43:16;;;;;;;18.80;9.98;;;;;;;10.09;46.77;95044.06;5115524;28;20091;-76
2022/01/15 10:45:55;;;;;;;15.05;9.18;;;;;;;8.25;51.15;95040.44;5115429;28;20020;-77
2022/01/15 10:48:33;;;;;;;15.73;9.77;;;;;;;9.13;49.50;95035.09;5115441;28;20065;-73
2022/01/15 10:51:02;;;;;;;15.48;10.15;;;;;;;8.57;51.79;95035.47;5115537;28;20059;-73
2022/01/15 10:53:46;;;;;;;18.27;10.75;;;;;;;8.04;52.18;95038.75;5115101;28;20103;-74
2022/01/15 10:56:14;;;;;;;16.35;10.38;;;;;;;7.64;52.35;95020.88;5115301;28;20022;-73
2022/01/15 10:58:42;;;;;;;17.23;10.05;;;;;;;7.56;54.05;95021.16;5115446;28;20063;-75
2022/01/15 11:01:12;;;;;;;17.38;10.32;;;;;;;7.04;54.52;95025.75;5115050;28;20058;-76
2022/01/15 11:03:40;;;;;;;18.13;10.10;;;;;;;6.83;54.88;95033.56;5115120;28;20102;-73
2022/01/15 11:06:06;;;;;;;17.50;10.60;;;;;;;6.10;56.68;95037.59;5114509;28;20448;-73
2022/01/15 11:08:40;;;;;;;17.50;10.93;;;;;;;6.09;56.71;95039.56;5114681;27;20020;-77
2022/01/15 11:11:08;;;;;;;13.68;9.10;;;;;;;5.85;58.04;95030.44;5115347;28;20111;-77
2022/01/15 11:13:42;;;;;;;16.77;9.40;;;;;;;5.66;58.67;95035.75;5115040;28;20490;-72
2022/01/15 11:16:14;;;;;;;17.42;9.77;;;;;;;5.78;58.40;95036.88;5114912;28;20012;-72
2022/01/15 11:18:54;;;;;;;16.90;10.63;;;;;;;5.88;58.21;95029.56;5114884;28;20024;-71
2022/01/15 11:21:21;;;;;;;16.42;10.15;;;;;;;6.48;56.64;95033.81;5114965;28;20038;-76
2022/01/15 11:23:49;;;;;;;16.38;9.90;;;;;;;5.91;58.05;95024.03;5114591;28;20121;-71
2022/01/15 11:26:16;;;;;;;18.33;9.65;;;;;;;5.80;58.62;95021.00;5114358;28;20020;-73
2022/01/15 11:28:43;;;;;;;21.48;10.75;;;;;;;6.21;58.43;95010.97;5114229;28;20074;-79
2022/01/15 11:31:22;;;;;;;20.42;11.13;;;;;;;5.78;59.34;95009.94;5114886;28;20033;-79
2022/01/15 11:33:50;;;;;;;18.90;10.57;;;;;;;5.83;59.47;95011.28;5114828;28;20444;-79
2022/01/15 11:36:35;;;;;;;18.63;9.60;;;;;;;5.10;60.65;95001.63;5119387;28;20452;-72
2022/01/15 11:39:03;;;;;;;15.95;9.75;;;;;;;4.57;62.83;94997.66;5122314;28;20055;-71
2022/01/15 11:41:29;;;;;;;15.38;10.18;;;;;;;4.85;61.29;95000.56;5123410;28;20020;-70
2022/01/15 11:44:15;;;;;;;18.17;9.90;;;;;;;4.94;61.52;95010.66;5123126;28;20467;-71
2022/01/15 11:46:54;;;;;;;17.48;10.32;;;;;;;5.16;61.44;95005.25;5121173;28;20107;-73
2022/01/15 11:49:27;;;;;;;17.55;9.35;;;;;;;4.54;63.21;95001.97;5118246;28;20027;-71
2022/01/15 11:52:04;;;;;;;17.60;9.70;;;;;;;4.77;66.75;95005.41;5115827;28;20096;-69
2022/01/15 11:54:29;;;;;;;17.70;9.57;;;;;;;4.27;64.51;95012.44;5114695;28;20026;-74
2022/01/15 11:56:55;;;;;;;16.02;10.02;;;;;;;4.78;63.08;95009.63;5114092;28;20383;-75